sensor_id;sensor_type;location;lat;lon;timestamp;pressure;altitude;pressure_sealevel;temperature;humidity
57904;BME280;43720;47.462;19.030;2022-12-20T04:58:29;102004.53;;;0.23;87.68
57904;BME280;43720;47.462;19.030;2022-12-20T05:01:33;102007.41;;;0.59;85.44
57904;BME280;43720;47.462;19.030;2022-12-20T05:04:35;102025.69;;;0.41;86.50
57904;BME280;43720;47.462;19.030;2022-12-20T05:07:39;102015.94;;;0.37;85.78
57904;BME280;43720;47.462;19.030;2022-12-20T05:10:41;102014.66;;;0.32;86.67
57904;BME280;43720;47.462;19.030;2022-12-20T05:13:44;102024.81;;;0.41;86.14
57904;BME280;43720;47.462;19.030;2022-12-20T05:16:47;102029.16;;;0.42;85.45
57904;BME280;43720;47.462;19.030;2022-12-20T05:19:49;102028.94;;;0.29;86.56
57904;BME280;43720;47.462;19.030;2022-12-20T05:22:51;102030.91;;;0.21;87.51
57904;BME280;43720;47.462;19.030;2022-12-20T05:26:13;102027.28;;;0.19;87.34
57904;BME280;43720;47.462;19.030;2022-12-20T05:29:21;102035.28;;;0.02;87.61
57904;BME280;43720;47.462;19.030;2022-12-20T05:32:23;102030.41;;;0.05;88.77
57904;BME280;43720;47.462;19.030;2022-12-20T05:35:26;102027.16;;;0.07;87.56
57904;BME280;43720;47.462;19.030;2022-12-20T05:38:30;102034.19;;;0.40;86.35
57904;BME280;43720;47.462;19.030;2022-12-20T05:41:32;102039.06;;;0.47;85.81
57904;BME280;43720;47.462;19.030;2022-12-20T05:44:35;102033.16;;;0.48;86.03
57904;BME280;43720;47.462;19.030;2022-12-20T05:47:38;102042.66;;;0.49;85.46
57904;BME280;43720;47.462;19.030;2022-12-20T05:50:41;102030.75;;;0.30;86.18
57904;BME280;43720;47.462;19.030;2022-12-20T05:53:47;102033.72;;;0.14;86.54
57904;BME280;43720;47.462;19.030;2022-12-20T05:56:51;102027.56;;;-0.09;88.36
57904;BME280;43720;47.462;19.030;2022-12-20T05:59:54;102015.88;;;-0.26;89.59
57904;BME280;43720;47.462;19.030;2022-12-20T06:02:57;102022.84;;;-0.14;89.93
57904;BME280;43720;47.462;19.030;2022-12-20T06:05:59;102007.50;;;0.08;88.40
57904;BME280;43720;47.462;19.030;2022-12-20T06:09:02;102001.34;;;0.06;88.47
57904;BME280;43720;47.462;19.030;2022-12-20T06:12:05;102000.28;;;0.24;87.33
57904;BME280;43720;47.462;19.030;2022-12-20T06:15:08;101993.94;;;0.31;86.85
57904;BME280;43720;47.462;19.030;2022-12-20T06:18:13;101988.81;;;0.31;86.61
57904;BME280;43720;47.462;19.030;2022-12-20T06:21:15;101978.47;;;0.09;86.98
57904;BME280;43720;47.462;19.030;2022-12-20T06:24:18;101984.25;;;-0.04;88.78
57904;BME280;43720;47.462;19.030;2022-12-20T06:27:20;101990.44;;;-0.02;88.13
57904;BME280;43720;47.462;19.030;2022-12-20T06:30:25;101986.31;;;-0.10;89.04
57904;BME280;43720;47.462;19.030;2022-12-20T06:33:36;101987.38;;;-0.18;89.69
57904;BME280;43720;47.462;19.030;2022-12-20T06:36:39;101990.44;;;0.08;88.15
57904;BME280;43720;47.462;19.030;2022-12-20T06:39:42;101985.50;;;0.11;86.87
57904;BME280;43720;47.462;19.030;2022-12-20T06:42:44;101983.13;;;-0.18;89.05
57904;BME280;43720;47.462;19.030;2022-12-20T06:45:47;101979.88;;;-0.05;88.04
57904;BME280;43720;47.462;19.030;2022-12-20T06:48:50;101973.84;;;-0.16;88.67
57904;BME280;43720;47.462;19.030;2022-12-20T06:51:52;101976.19;;;-0.19;89.12
57904;BME280;43720;47.462;19.030;2022-12-20T06:54:55;101974.09;;;-0.03;88.75
57904;BME280;43720;47.462;19.030;2022-12-20T06:57:59;101973.78;;;0.35;86.76
57904;BME280;43720;47.462;19.030;2022-12-20T07:01:04;101960.41;;;0.29;88.42
57904;BME280;43720;47.462;19.030;2022-12-20T07:04:08;101968.38;;;0.22;87.62
57904;BME280;43720;47.462;19.030;2022-12-20T07:07:11;101964.41;;;0.15;88.23
57904;BME280;43720;47.462;19.030;2022-12-20T07:10:14;101959.53;;;0.18;87.84
57904;BME280;43720;47.462;19.030;2022-12-20T07:13:16;101955.78;;;0.25;87.39
57904;BME280;43720;47.462;19.030;2022-12-20T07:16:18;101949.34;;;0.30;87.40
57904;BME280;43720;47.462;19.030;2022-12-20T07:19:20;101953.84;;;0.33;86.77
57904;BME280;43720;47.462;19.030;2022-12-20T07:22:23;101949.06;;;0.27;87.58
57904;BME280;43720;47.462;19.030;2022-12-20T07:25:25;101950.72;;;0.37;87.07
57904;BME280;43720;47.462;19.030;2022-12-20T07:28:27;101960.69;;;0.54;86.34
57904;BME280;43720;47.462;19.030;2022-12-20T07:31:30;101963.31;;;0.76;84.40
57904;BME280;43720;47.462;19.030;2022-12-20T07:34:35;101970.50;;;0.80;84.37
57904;BME280;43720;47.462;19.030;2022-12-20T07:37:38;101970.91;;;0.75;84.33
57904;BME280;43720;47.462;19.030;2022-12-20T07:40:41;101972.34;;;0.93;84.08
57904;BME280;43720;47.462;19.030;2022-12-20T07:43:45;101971.81;;;0.75;83.61
57904;BME280;43720;47.462;19.030;2022-12-20T07:46:47;101970.69;;;0.93;82.74
57904;BME280;43720;47.462;19.030;2022-12-20T07:49:49;101960.75;;;0.98;82.43
57904;BME280;43720;47.462;19.030;2022-12-20T07:52:52;101963.44;;;1.00;82.29
57904;BME280;43720;47.462;19.030;2022-12-20T07:55:56;101970.00;;;0.96;82.14
57904;BME280;43720;47.462;19.030;2022-12-20T07:59:00;101969.84;;;0.83;83.14
57904;BME280;43720;47.462;19.030;2022-12-20T08:02:04;101958.69;;;0.72;83.30
57904;BME280;43720;47.462;19.030;2022-12-20T08:05:09;101962.22;;;0.84;82.82
57904;BME280;43720;47.462;19.030;2022-12-20T08:08:11;101958.66;;;0.82;82.50
57904;BME280;43720;47.462;19.030;2022-12-20T08:11:15;101941.44;;;0.93;82.20
57904;BME280;43720;47.462;19.030;2022-12-20T08:14:18;101927.03;;;0.95;81.26
57904;BME280;43720;47.462;19.030;2022-12-20T08:17:22;101934.94;;;0.86;81.52
57904;BME280;43720;47.462;19.030;2022-12-20T08:20:24;101918.75;;;0.77;82.10
57904;BME280;43720;47.462;19.030;2022-12-20T08:23:26;101915.53;;;0.80;83.12
57904;BME280;43720;47.462;19.030;2022-12-20T08:26:28;101913.44;;;0.64;83.59
57904;BME280;43720;47.462;19.030;2022-12-20T08:29:30;101915.84;;;0.72;83.81
57904;BME280;43720;47.462;19.030;2022-12-20T08:32:33;101918.41;;;0.94;82.16
57904;BME280;43720;47.462;19.030;2022-12-20T08:35:35;101919.06;;;0.92;80.95
57904;BME280;43720;47.462;19.030;2022-12-20T08:38:37;101917.91;;;0.88;81.21
57904;BME280;43720;47.462;19.030;2022-12-20T08:41:40;101915.84;;;1.16;81.22
57904;BME280;43720;47.462;19.030;2022-12-20T08:44:42;101915.84;;;1.16;81.46
57904;BME280;43720;47.462;19.030;2022-12-20T08:47:45;101914.84;;;1.26;80.69
57904;BME280;43720;47.462;19.030;2022-12-20T08:50:59;101908.25;;;1.30;79.82
57904;BME280;43720;47.462;19.030;2022-12-20T08:54:02;101912.00;;;1.57;79.26
57904;BME280;43720;47.462;19.030;2022-12-20T08:57:04;101906.62;;;1.54;78.11
57904;BME280;43720;47.462;19.030;2022-12-20T09:00:07;101891.28;;;1.55;79.17
57904;BME280;43720;47.462;19.030;2022-12-20T09:03:09;101905.38;;;1.49;78.97
57904;BME280;43720;47.462;19.030;2022-12-20T09:06:16;101902.03;;;1.61;77.78
57904;BME280;43720;47.462;19.030;2022-12-20T09:09:18;101910.06;;;1.42;78.14
57904;BME280;43720;47.462;19.030;2022-12-20T09:12:21;101909.97;;;1.53;78.31
57904;BME280;43720;47.462;19.030;2022-12-20T09:15:23;101903.81;;;1.51;78.24
57904;BME280;43720;47.462;19.030;2022-12-20T09:18:27;101910.97;;;1.55;78.10
57904;BME280;43720;47.462;19.030;2022-12-20T09:21:29;101914.81;;;1.60;77.34
57904;BME280;43720;47.462;19.030;2022-12-20T09:24:32;101909.44;;;1.57;78.14
57904;BME280;43720;47.462;19.030;2022-12-20T09:27:34;101903.63;;;1.59;77.96
57904;BME280;43720;47.462;19.030;2022-12-20T09:30:36;101906.41;;;1.74;77.28
57904;BME280;43720;47.462;19.030;2022-12-20T09:33:39;101905.66;;;1.87;76.77
57904;BME280;43720;47.462;19.030;2022-12-20T09:36:42;101903.19;;;2.00;76.95
57904;BME280;43720;47.462;19.030;2022-12-20T09:39:44;101880.44;;;2.06;74.39
57904;BME280;43720;47.462;19.030;2022-12-20T09:42:48;101870.69;;;2.02;76.17
57904;BME280;43720;47.462;19.030;2022-12-20T09:45:57;101855.31;;;1.92;76.71
57904;BME280;43720;47.462;19.030;2022-12-20T09:49:01;101855.62;;;2.08;76.63
57904;BME280;43720;47.462;19.030;2022-12-20T09:55:52;101848.41;;;2.39;74.63
57904;BME280;43720;47.462;19.030;2022-12-20T09:59:00;101850.34;;;2.30;75.27
57904;BME280;43720;47.462;19.030;2022-12-20T10:02:08;101854.06;;;2.22;74.36
57904;BME280;43720;47.462;19.030;2022-12-20T10:05:48;101854.03;;;2.34;74.28
57904;BME280;43720;47.462;19.030;2022-12-20T10:09:18;101839.78;;;2.27;75.04
57904;BME280;43720;47.462;19.030;2022-12-20T10:15:36;101831.78;;;2.48;74.14
57904;BME280;43720;47.462;19.030;2022-12-20T10:28:27;101809.56;;;2.50;73.74
57904;BME280;43720;47.462;19.030;2022-12-20T10:31:30;101813.34;;;2.55;73.54
57904;BME280;43720;47.462;19.030;2022-12-20T10:34:32;101801.62;;;2.72;72.68
57904;BME280;43720;47.462;19.030;2022-12-20T10:38:02;101797.53;;;3.00;72.36
57904;BME280;43720;47.462;19.030;2022-12-20T10:41:14;101779.37;;;3.12;70.96
57904;BME280;43720;47.462;19.030;2022-12-20T10:44:28;101766.09;;;3.19;69.75
57904;BME280;43720;47.462;19.030;2022-12-20T10:47:40;101767.06;;;3.21;70.06
57904;BME280;43720;47.462;19.030;2022-12-20T10:51:15;101765.00;;;3.42;70.01
57904;BME280;43720;47.462;19.030;2022-12-20T10:54:23;101767.31;;;3.37;69.30
57904;BME280;43720;47.462;19.030;2022-12-20T10:57:28;101773.53;;;3.67;69.98
57904;BME280;43720;47.462;19.030;2022-12-20T11:00:32;101767.59;;;3.55;68.71
57904;BME280;43720;47.462;19.030;2022-12-20T11:03:52;101755.87;;;3.34;68.71
57904;BME280;43720;47.462;19.030;2022-12-20T11:06:55;101741.63;;;3.40;69.23
57904;BME280;43720;47.462;19.030;2022-12-20T11:10:00;101736.66;;;3.17;68.60
57904;BME280;43720;47.462;19.030;2022-12-20T11:13:03;101737.66;;;3.19;70.14
57904;BME280;43720;47.462;19.030;2022-12-20T11:16:21;101733.38;;;3.19;69.51
57904;BME280;43720;47.462;19.030;2022-12-20T11:23:29;101717.87;;;3.33;68.80
57904;BME280;43720;47.462;19.030;2022-12-20T11:30:18;101719.78;;;3.22;69.64
57904;BME280;43720;47.462;19.030;2022-12-20T11:33:28;101715.19;;;3.05;69.69
57904;BME280;43720;47.462;19.030;2022-12-20T11:43:27;101700.69;;;3.20;69.95
57904;BME280;43720;47.462;19.030;2022-12-20T11:50:44;101688.66;;;3.21;70.05
57904;BME280;43720;47.462;19.030;2022-12-20T11:53:54;101684.37;;;3.34;68.97
57904;BME280;43720;47.462;19.030;2022-12-20T11:57:16;101683.09;;;3.41;68.36
57904;BME280;43720;47.462;19.030;2022-12-20T12:00:19;101682.97;;;3.39;69.23
57904;BME280;43720;47.462;19.030;2022-12-20T12:03:36;101680.16;;;3.63;68.90
57904;BME280;43720;47.462;19.030;2022-12-20T12:06:55;101687.16;;;3.51;68.86
57904;BME280;43720;47.462;19.030;2022-12-20T12:10:03;101674.91;;;3.48;68.91
57904;BME280;43720;47.462;19.030;2022-12-20T12:16:18;101660.78;;;3.70;68.11
57904;BME280;43720;47.462;19.030;2022-12-20T12:19:26;101657.37;;;3.99;67.97
57904;BME280;43720;47.462;19.030;2022-12-20T12:22:33;101658.78;;;4.22;66.31
57904;BME280;43720;47.462;19.030;2022-12-20T12:25:36;101654.16;;;4.16;66.13
57904;BME280;43720;47.462;19.030;2022-12-20T12:28:39;101656.47;;;4.11;66.26
57904;BME280;43720;47.462;19.030;2022-12-20T12:39:13;101651.03;;;4.22;66.13
57904;BME280;43720;47.462;19.030;2022-12-20T12:42:25;101640.22;;;4.14;66.78
57904;BME280;43720;47.462;19.030;2022-12-20T12:45:42;101635.56;;;4.08;67.40
57904;BME280;43720;47.462;19.030;2022-12-20T12:48:54;101631.50;;;3.99;66.47
57904;BME280;43720;47.462;19.030;2022-12-20T12:52:00;101627.53;;;4.04;66.34
57904;BME280;43720;47.462;19.030;2022-12-20T12:58:38;101633.34;;;3.86;67.81
57904;BME280;43720;47.462;19.030;2022-12-20T13:01:54;101634.22;;;3.72;68.13
57904;BME280;43720;47.462;19.030;2022-12-20T13:08:16;101633.87;;;3.53;70.53
57904;BME280;43720;47.462;19.030;2022-12-20T13:11:30;101629.47;;;3.65;68.01
57904;BME280;43720;47.462;19.030;2022-12-20T13:21:16;101620.63;;;3.48;69.13
57904;BME280;43720;47.462;19.030;2022-12-20T13:27:50;101612.22;;;3.37;70.00
57904;BME280;43720;47.462;19.030;2022-12-20T13:33:59;101605.25;;;3.36;70.18
57904;BME280;43720;47.462;19.030;2022-12-20T13:37:02;101603.81;;;3.55;69.40
57904;BME280;43720;47.462;19.030;2022-12-20T13:40:19;101603.97;;;3.71;69.15
57904;BME280;43720;47.462;19.030;2022-12-20T13:43:35;101599.94;;;3.48;70.61
57904;BME280;43720;47.462;19.030;2022-12-20T13:46:52;101604.50;;;3.52;68.90
57904;BME280;43720;47.462;19.030;2022-12-20T13:50:20;101598.56;;;3.40;70.50
57904;BME280;43720;47.462;19.030;2022-12-20T13:53:25;101598.16;;;3.47;70.09
57904;BME280;43720;47.462;19.030;2022-12-20T13:56:46;101596.31;;;3.73;69.43
57904;BME280;43720;47.462;19.030;2022-12-20T13:59:51;101584.97;;;3.42;68.77
57904;BME280;43720;47.462;19.030;2022-12-20T14:03:01;101584.31;;;3.18;70.43
57904;BME280;43720;47.462;19.030;2022-12-20T14:06:09;101573.66;;;3.27;71.88
57904;BME280;43720;47.462;19.030;2022-12-20T14:09:27;101569.37;;;3.28;69.84
57904;BME280;43720;47.462;19.030;2022-12-20T14:12:31;101564.50;;;3.32;70.64
57904;BME280;43720;47.462;19.030;2022-12-20T14:15:38;101571.88;;;3.26;70.50
57904;BME280;43720;47.462;19.030;2022-12-20T14:18:40;101551.00;;;3.23;69.72
57904;BME280;43720;47.462;19.030;2022-12-20T14:21:44;101558.87;;;2.98;71.41
57904;BME280;43720;47.462;19.030;2022-12-20T14:24:47;101552.22;;;3.02;71.82
57904;BME280;43720;47.462;19.030;2022-12-20T14:27:49;101554.88;;;3.16;72.40
57904;BME280;43720;47.462;19.030;2022-12-20T14:30:52;101557.19;;;3.12;71.73
57904;BME280;43720;47.462;19.030;2022-12-20T14:37:27;101542.50;;;3.11;71.10
57904;BME280;43720;47.462;19.030;2022-12-20T14:40:30;101534.75;;;2.98;72.29
57904;BME280;43720;47.462;19.030;2022-12-20T14:43:41;101531.41;;;2.99;72.73
57904;BME280;43720;47.462;19.030;2022-12-20T14:46:48;101529.59;;;2.98;73.00
57904;BME280;43720;47.462;19.030;2022-12-20T14:49:57;101527.84;;;2.83;73.06
57904;BME280;43720;47.462;19.030;2022-12-20T14:53:00;101522.06;;;2.87;72.00
57904;BME280;43720;47.462;19.030;2022-12-20T14:56:03;101522.16;;;2.89;72.17
57904;BME280;43720;47.462;19.030;2022-12-20T14:59:13;101516.78;;;2.86;72.09
57904;BME280;43720;47.462;19.030;2022-12-20T15:02:33;101518.09;;;2.79;72.33
57904;BME280;43720;47.462;19.030;2022-12-20T15:05:45;101524.25;;;2.81;73.45
57904;BME280;43720;47.462;19.030;2022-12-20T15:08:48;101531.75;;;3.05;73.04
57904;BME280;43720;47.462;19.030;2022-12-20T15:11:50;101535.63;;;3.11;73.82
57904;BME280;43720;47.462;19.030;2022-12-20T15:14:54;101533.25;;;3.14;73.81
57904;BME280;43720;47.462;19.030;2022-12-20T15:17:56;101543.31;;;2.97;75.28
57904;BME280;43720;47.462;19.030;2022-12-20T15:21:04;101531.78;;;2.91;75.15
57904;BME280;43720;47.462;19.030;2022-12-20T15:24:13;101523.25;;;2.92;75.68
57904;BME280;43720;47.462;19.030;2022-12-20T15:27:16;101520.38;;;2.88;75.93
57904;BME280;43720;47.462;19.030;2022-12-20T15:30:18;101521.94;;;2.86;76.24
57904;BME280;43720;47.462;19.030;2022-12-20T15:33:30;101527.94;;;2.72;76.50
57904;BME280;43720;47.462;19.030;2022-12-20T15:36:33;101519.88;;;2.80;76.41
57904;BME280;43720;47.462;19.030;2022-12-20T15:39:35;101525.63;;;2.89;76.40
57904;BME280;43720;47.462;19.030;2022-12-20T15:42:41;101539.38;;;2.75;76.49
57904;BME280;43720;47.462;19.030;2022-12-20T15:45:47;101541.63;;;2.70;77.35
57904;BME280;43720;47.462;19.030;2022-12-20T15:48:51;101546.28;;;2.63;77.85
57904;BME280;43720;47.462;19.030;2022-12-20T15:51:53;101558.59;;;2.54;78.11
57904;BME280;43720;47.462;19.030;2022-12-20T15:54:55;101553.84;;;2.60;78.20
57904;BME280;43720;47.462;19.030;2022-12-20T15:57:58;101559.50;;;2.54;78.14
57904;BME280;43720;47.462;19.030;2022-12-20T16:01:00;101550.28;;;2.44;78.39
57904;BME280;43720;47.462;19.030;2022-12-20T16:04:05;101545.41;;;2.49;78.42
57904;BME280;43720;47.462;19.030;2022-12-20T16:07:09;101545.41;;;2.49;78.64
57904;BME280;43720;47.462;19.030;2022-12-20T16:10:14;101539.34;;;2.62;78.43
57904;BME280;43720;47.462;19.030;2022-12-20T16:13:21;101541.81;;;2.47;78.26
57904;BME280;43720;47.462;19.030;2022-12-20T16:16:26;101547.34;;;2.27;79.04
57904;BME280;43720;47.462;19.030;2022-12-20T16:19:29;101550.25;;;2.31;79.68
57904;BME280;43720;47.462;19.030;2022-12-20T16:22:32;101555.69;;;2.23;80.06
57904;BME280;43720;47.462;19.030;2022-12-20T16:25:35;101539.31;;;2.35;79.83
